createdAt,value
2018-12-26T00:01:34.229Z,5.37
2018-12-26T00:04:07.550Z,4.13
2018-12-26T00:06:41.148Z,5.40
2018-12-26T00:09:14.278Z,5.40
2018-12-26T00:11:47.467Z,6.70
2018-12-26T00:14:20.552Z,4.33
2018-12-26T00:16:53.963Z,6.00
2018-12-26T00:19:27.189Z,6.30
2018-12-26T00:22:00.300Z,5.47
2018-12-26T00:24:33.447Z,5.50
2018-12-26T00:27:06.529Z,5.63
2018-12-26T00:29:39.692Z,4.73
2018-12-26T00:32:13.057Z,5.57
2018-12-26T00:34:48.900Z,4.83
2018-12-26T00:37:22.042Z,6.43
2018-12-26T00:39:55.212Z,6.43
2018-12-26T00:42:28.240Z,7.55
2018-12-26T00:45:01.719Z,5.30
2018-12-26T00:47:34.950Z,6.13
2018-12-26T00:50:08.278Z,5.63
2018-12-26T00:52:41.580Z,5.53
2018-12-26T00:55:14.732Z,4.67
2018-12-26T00:57:47.855Z,4.93
2018-12-26T01:00:21.203Z,5.77
2018-12-26T01:02:55.551Z,5.97
2018-12-26T01:05:28.696Z,5.07
2018-12-26T01:08:01.938Z,4.73
2018-12-26T01:10:35.333Z,5.95
2018-12-26T01:13:08.487Z,4.08
2018-12-26T01:15:41.724Z,4.75
2018-12-26T01:18:14.784Z,4.30
2018-12-26T01:20:47.857Z,4.70
2018-12-26T01:23:20.726Z,4.07
2018-12-26T01:25:53.910Z,5.03
2018-12-26T01:28:26.923Z,4.70
2018-12-26T01:31:00.148Z,4.40
2018-12-26T01:33:33.175Z,4.60
2018-12-26T01:36:06.082Z,4.47
2018-12-26T01:38:38.740Z,3.47
2018-12-26T01:41:11.499Z,5.00
2018-12-26T01:43:44.767Z,5.47
2018-12-26T01:46:17.872Z,5.27
2018-12-26T01:48:51.244Z,4.08
2018-12-26T01:51:25.073Z,5.20
2018-12-26T01:53:57.997Z,5.37
2018-12-26T01:56:31.138Z,4.80
2018-12-26T01:59:04.647Z,3.93
2018-12-26T02:01:37.961Z,4.43
2018-12-26T02:04:10.972Z,3.93
2018-12-26T02:06:43.881Z,4.83
2018-12-26T02:09:17.293Z,5.17
2018-12-26T02:11:51.084Z,3.90
2018-12-26T02:14:24.151Z,5.50
2018-12-26T02:16:57.119Z,5.10
2018-12-26T02:19:30.819Z,6.80
2018-12-26T02:22:04.088Z,5.43
2018-12-26T02:24:37.719Z,6.00
2018-12-26T02:27:11.055Z,5.73
2018-12-26T02:29:44.260Z,5.23
2018-12-26T02:32:17.589Z,5.40
2018-12-26T02:34:50.563Z,5.83
2018-12-26T02:37:23.954Z,4.77
2018-12-26T02:39:57.344Z,5.73
2018-12-26T02:42:30.388Z,5.70
2018-12-26T02:45:03.517Z,5.17
2018-12-26T02:47:36.591Z,5.63
2018-12-26T02:50:10.822Z,5.03
2018-12-26T02:52:44.007Z,5.13
2018-12-26T02:55:17.315Z,4.87
2018-12-26T02:57:51.046Z,3.80
2018-12-26T03:00:24.244Z,3.70
2018-12-26T03:02:57.353Z,4.97
2018-12-26T03:05:31.157Z,4.00
2018-12-26T03:08:04.520Z,3.67
2018-12-26T03:10:37.565Z,2.93
2018-12-26T03:13:10.626Z,3.63
2018-12-26T03:15:43.688Z,4.70
2018-12-26T03:18:16.975Z,3.43
2018-12-26T03:20:50.168Z,3.63
2018-12-26T03:23:23.247Z,3.97
2018-12-26T03:25:56.303Z,3.80
2018-12-26T03:28:29.262Z,4.17
2018-12-26T03:31:02.433Z,3.10
2018-12-26T03:33:35.633Z,3.60
2018-12-26T03:36:09.171Z,4.17
2018-12-26T03:38:42.140Z,4.13
2018-12-26T03:41:17.178Z,3.20
2018-12-26T03:43:51.410Z,3.47
2018-12-26T03:46:24.599Z,3.07
2018-12-26T03:48:58.001Z,4.17
2018-12-26T03:51:31.319Z,2.63
2018-12-26T03:54:04.583Z,3.50
2018-12-26T03:56:38.281Z,2.60
2018-12-26T03:59:11.906Z,2.47
2018-12-26T04:01:45.075Z,3.23
2018-12-26T04:04:18.137Z,2.43
2018-12-26T04:06:51.349Z,2.47
2018-12-26T04:09:27.896Z,2.70
2018-12-26T04:11:59.206Z,3.20
2018-12-26T04:14:32.276Z,3.10
2018-12-26T04:17:05.409Z,2.60
2018-12-26T04:19:38.722Z,2.23
2018-12-26T04:22:11.855Z,1.87
2018-12-26T04:24:45.175Z,3.23
2018-12-26T04:27:18.196Z,2.00
2018-12-26T04:29:59.579Z,1.82
2018-12-26T04:32:32.804Z,2.87
2018-12-26T04:35:06.129Z,2.43
2018-12-26T04:37:39.220Z,2.10
2018-12-26T04:40:12.243Z,2.87
2018-12-26T04:42:45.061Z,1.90
2018-12-26T04:45:17.698Z,1.87
2018-12-26T04:47:50.362Z,2.27
2018-12-26T04:50:23.820Z,1.82
2018-12-26T04:52:56.965Z,2.23
2018-12-26T04:55:30.236Z,2.65
2018-12-26T04:58:03.642Z,2.20
2018-12-26T05:00:36.312Z,1.75
2018-12-26T05:03:15.883Z,1.93
2018-12-26T05:05:48.823Z,1.90
2018-12-26T05:08:21.866Z,2.65
2018-12-26T05:10:54.910Z,2.50
2018-12-26T05:13:27.875Z,1.93
2018-12-26T05:16:01.052Z,2.22
2018-12-26T05:18:34.328Z,2.33
2018-12-26T05:21:07.431Z,2.27
2018-12-26T05:23:40.482Z,2.20
2018-12-26T05:26:16.416Z,2.10
2018-12-26T05:28:49.430Z,2.63
2018-12-26T05:31:22.667Z,1.73
2018-12-26T05:33:55.913Z,2.67
2018-12-26T05:36:28.883Z,2.93
2018-12-26T05:39:01.881Z,1.83
2018-12-26T05:41:34.900Z,2.00
2018-12-26T05:44:08.915Z,1.80
2018-12-26T05:46:41.922Z,2.50
2018-12-26T05:49:15.018Z,1.77
2018-12-26T05:51:48.085Z,1.80
2018-12-26T05:54:21.183Z,2.07
2018-12-26T05:56:55.487Z,3.17
2018-12-26T05:59:29.017Z,2.40
2018-12-26T06:02:02.138Z,2.20
2018-12-26T06:04:35.653Z,2.73
2018-12-26T06:07:08.548Z,2.10
2018-12-26T06:09:42.225Z,1.50
2018-12-26T06:12:15.265Z,1.77
2018-12-26T06:14:48.434Z,2.00
2018-12-26T06:17:21.599Z,2.10
2018-12-26T06:19:54.603Z,2.33
2018-12-26T06:22:30.539Z,2.00
2018-12-26T06:25:29.067Z,2.30
2018-12-26T06:28:02.251Z,1.87
2018-12-26T06:30:35.790Z,1.53
2018-12-26T06:33:09.031Z,3.30
2018-12-26T06:35:42.087Z,2.90
2018-12-26T06:38:15.021Z,2.57
2018-12-26T06:40:48.190Z,2.37
2018-12-26T06:43:21.262Z,2.27
2018-12-26T06:45:54.283Z,2.47
2018-12-26T06:48:27.729Z,2.03
2018-12-26T06:51:01.049Z,2.10
2018-12-26T06:53:34.079Z,2.23
2018-12-26T06:56:07.506Z,2.20
2018-12-26T06:58:40.602Z,2.50
2018-12-26T07:01:13.730Z,2.13
2018-12-26T07:03:46.594Z,1.90
2018-12-26T07:06:20.012Z,2.37
2018-12-26T07:08:53.130Z,2.37
2018-12-26T07:11:26.770Z,2.37
2018-12-26T07:13:59.763Z,2.73
2018-12-26T07:16:32.686Z,2.40
2018-12-26T07:19:08.705Z,2.43
2018-12-26T07:21:42.044Z,3.03
2018-12-26T07:24:15.193Z,2.80
2018-12-26T07:26:48.018Z,2.27
2018-12-26T07:29:21.014Z,2.63
2018-12-26T07:31:53.990Z,2.80
2018-12-26T07:34:27.145Z,2.67
2018-12-26T07:37:00.377Z,2.57
2018-12-26T07:39:33.602Z,3.30
2018-12-26T07:42:06.683Z,2.63
2018-12-26T07:44:39.761Z,1.67
2018-12-26T07:47:12.855Z,3.30
2018-12-26T07:49:45.909Z,2.73
2018-12-26T07:52:18.984Z,3.20
2018-12-26T07:54:52.102Z,2.63
2018-12-26T07:57:25.190Z,2.13
2018-12-26T07:59:58.355Z,2.57
2018-12-26T08:02:31.507Z,2.13
2018-12-26T08:05:04.556Z,2.83
2018-12-26T08:07:37.931Z,2.80
2018-12-26T08:10:11.156Z,2.57
2018-12-26T08:12:44.293Z,3.17
2018-12-26T08:15:17.864Z,3.00
2018-12-26T08:17:50.903Z,3.63
2018-12-26T08:20:24.159Z,3.73
2018-12-26T08:22:57.088Z,4.40
2018-12-26T08:25:30.112Z,4.53
2018-12-26T08:28:03.124Z,3.40
2018-12-26T08:30:36.863Z,4.60
2018-12-26T08:33:10.058Z,3.27
2018-12-26T08:35:43.115Z,4.27
2018-12-26T08:38:16.212Z,3.63
2018-12-26T08:40:49.380Z,4.97
2018-12-26T08:43:22.418Z,5.50
2018-12-26T08:45:56.024Z,4.60
2018-12-26T08:48:28.958Z,4.07
2018-12-26T08:51:01.887Z,4.93
2018-12-26T08:53:34.906Z,4.13
2018-12-26T08:56:07.918Z,4.93
2018-12-26T08:58:40.961Z,4.50
2018-12-26T09:01:14.197Z,4.77
2018-12-26T09:03:47.181Z,5.07
2018-12-26T09:06:20.119Z,5.83
2018-12-26T09:08:53.751Z,6.23
2018-12-26T09:11:27.222Z,5.90
2018-12-26T09:14:00.386Z,6.13
2018-12-26T09:16:33.341Z,6.83
2018-12-26T09:19:06.375Z,7.50
2018-12-26T09:21:39.449Z,6.90
2018-12-26T09:24:12.526Z,7.30
2018-12-26T09:26:45.578Z,7.67
2018-12-26T09:29:18.593Z,6.07
2018-12-26T09:31:51.419Z,7.47
2018-12-26T09:34:25.681Z,7.17
2018-12-26T09:36:58.350Z,7.23
2018-12-26T09:39:33.742Z,8.27
2018-12-26T09:42:07.190Z,6.93
2018-12-26T09:44:40.375Z,9.33
2018-12-26T09:47:13.436Z,8.27
2018-12-26T09:49:46.578Z,8.20
2018-12-26T09:52:19.948Z,8.27
2018-12-26T09:54:53.257Z,6.10
2018-12-26T09:57:26.570Z,7.80
2018-12-26T09:59:59.585Z,8.53
2018-12-26T10:02:32.843Z,9.40
2018-12-26T10:05:06.504Z,8.30
2018-12-26T10:07:39.251Z,8.50
2018-12-26T10:10:12.717Z,9.20
2018-12-26T10:12:46.854Z,8.20
2018-12-26T10:15:19.642Z,7.40
2018-12-26T10:17:52.603Z,6.87
2018-12-26T10:20:25.630Z,8.63
2018-12-26T10:22:58.638Z,7.57
2018-12-26T10:25:31.804Z,6.83
2018-12-26T10:28:05.058Z,8.17
2018-12-26T10:30:37.998Z,6.87
2018-12-26T10:33:11.156Z,6.97
2018-12-26T10:35:44.350Z,6.17
2018-12-26T10:38:17.325Z,5.50
2018-12-26T10:40:50.298Z,6.67
2018-12-26T10:43:23.446Z,7.10
2018-12-26T10:45:56.553Z,7.63
2018-12-26T10:48:29.421Z,7.20
2018-12-26T10:51:02.404Z,7.57
2018-12-26T10:53:35.373Z,6.97
2018-12-26T10:56:08.346Z,7.80
2018-12-26T10:58:41.631Z,6.87
2018-12-26T11:01:14.624Z,7.57
2018-12-26T11:03:48.125Z,8.20
2018-12-26T11:06:21.212Z,7.40
2018-12-26T11:08:54.284Z,7.30
2018-12-26T11:11:27.542Z,8.20
2018-12-26T11:14:01.302Z,7.17
2018-12-26T11:16:34.899Z,8.30
2018-12-26T11:19:07.888Z,7.73
2018-12-26T11:21:42.120Z,7.13
2018-12-26T11:24:15.208Z,7.83
2018-12-26T11:26:48.366Z,6.40
2018-12-26T11:29:21.576Z,9.70
2018-12-26T11:31:55.072Z,5.77
2018-12-26T11:34:29.233Z,7.10
2018-12-26T11:37:02.526Z,5.87
2018-12-26T11:39:35.666Z,6.07
2018-12-26T11:42:08.748Z,5.20
2018-12-26T11:44:42.019Z,5.77
2018-12-26T11:47:15.120Z,6.13
2018-12-26T11:49:48.574Z,6.07
2018-12-26T11:52:21.736Z,7.20
2018-12-26T11:54:54.784Z,6.03
2018-12-26T11:57:28.106Z,6.67
2018-12-26T12:00:01.478Z,7.13
2018-12-26T12:02:34.551Z,7.17
2018-12-26T12:05:08.301Z,6.57
2018-12-26T12:07:42.603Z,5.80
2018-12-26T12:10:16.111Z,6.67
2018-12-26T12:12:49.272Z,5.33
2018-12-26T12:15:22.321Z,5.77
2018-12-26T12:18:15.820Z,4.93
2018-12-26T12:20:48.934Z,5.30
2018-12-26T12:23:22.245Z,6.53
2018-12-26T12:25:55.593Z,6.17
2018-12-26T12:28:31.604Z,6.43
2018-12-26T12:31:04.926Z,5.87
2018-12-26T12:33:38.057Z,7.17
2018-12-26T12:36:12.958Z,5.60
2018-12-26T12:38:45.441Z,6.73
2018-12-26T12:41:18.613Z,5.57
2018-12-26T12:43:51.785Z,6.93
2018-12-26T12:46:24.742Z,6.27
2018-12-26T12:48:57.790Z,6.27
2018-12-26T12:51:31.003Z,5.30
2018-12-26T12:54:04.043Z,6.80
2018-12-26T12:56:36.993Z,6.53
2018-12-26T12:59:10.155Z,6.37
2018-12-26T13:01:43.208Z,6.03
2018-12-26T13:04:16.251Z,5.87
2018-12-26T13:06:49.083Z,7.23
2018-12-26T13:09:21.901Z,6.43
2018-12-26T13:11:55.115Z,6.47
2018-12-26T13:14:28.845Z,6.55
2018-12-26T13:17:01.731Z,4.60
2018-12-26T13:19:34.901Z,5.03
2018-12-26T13:22:11.568Z,4.53
2018-12-26T13:24:44.756Z,5.50
2018-12-26T13:27:17.875Z,6.20
2018-12-26T13:29:53.848Z,5.93
2018-12-26T13:32:25.377Z,5.67
2018-12-26T13:34:58.511Z,4.23
2018-12-26T13:37:33.036Z,4.35
2018-12-26T13:40:06.275Z,4.83
2018-12-26T13:42:39.645Z,6.03
2018-12-26T13:45:12.652Z,4.87
2018-12-26T13:47:45.582Z,5.80
2018-12-26T13:50:18.776Z,4.80
2018-12-26T13:52:51.896Z,4.83
2018-12-26T13:55:24.995Z,4.80
2018-12-26T13:57:58.074Z,5.33
2018-12-26T14:00:31.087Z,4.80
2018-12-26T14:03:04.495Z,4.77
2018-12-26T14:05:37.895Z,5.57
2018-12-26T14:08:10.994Z,4.20
2018-12-26T14:10:44.061Z,4.67
2018-12-26T14:13:17.140Z,4.90
2018-12-26T14:15:50.248Z,4.55
2018-12-26T14:18:23.337Z,4.37
2018-12-26T14:20:56.216Z,4.10
2018-12-26T14:23:28.929Z,4.97
2018-12-26T14:26:02.112Z,5.33
2018-12-26T14:28:36.125Z,4.63
2018-12-26T14:31:09.298Z,4.43
2018-12-26T14:33:42.253Z,4.53
2018-12-26T14:36:15.269Z,3.83
2018-12-26T14:38:48.300Z,3.85
2018-12-26T14:41:21.395Z,4.30
2018-12-26T14:43:55.109Z,5.03
2018-12-26T14:46:28.180Z,4.13
2018-12-26T14:49:04.495Z,4.63
2018-12-26T14:51:37.841Z,5.47
2018-12-26T14:54:11.004Z,3.33
2018-12-26T14:56:44.097Z,3.23
2018-12-26T14:59:17.024Z,4.17
2018-12-26T15:01:50.269Z,4.17
2018-12-26T15:04:23.692Z,4.15
2018-12-26T15:06:57.247Z,3.90
2018-12-26T15:09:30.586Z,3.60
2018-12-26T15:12:03.964Z,4.87
2018-12-26T15:14:37.776Z,3.58
2018-12-26T15:17:11.032Z,3.87
2018-12-26T15:19:44.191Z,3.20
2018-12-26T15:22:17.261Z,3.80
2018-12-26T15:24:50.043Z,3.50
2018-12-26T15:27:22.908Z,3.93
2018-12-26T15:29:55.852Z,3.63
2018-12-26T15:32:29.101Z,3.53
2018-12-26T15:35:03.564Z,3.30
2018-12-26T15:37:36.529Z,4.30
2018-12-26T15:40:11.882Z,3.20
2018-12-26T15:42:45.735Z,3.53
2018-12-26T15:45:18.707Z,4.50
2018-12-26T15:47:51.888Z,3.42
2018-12-26T15:50:24.971Z,3.40
2018-12-26T15:52:58.134Z,2.58
2018-12-26T15:55:31.105Z,3.13
2018-12-26T15:58:07.813Z,4.43
2018-12-26T16:00:40.859Z,2.67
2018-12-26T16:03:13.942Z,3.42
2018-12-26T16:05:47.218Z,3.60
2018-12-26T16:08:20.397Z,3.02
2018-12-26T16:10:53.615Z,3.20
2018-12-26T16:13:26.730Z,3.37
2018-12-26T16:15:59.829Z,3.13
2018-12-26T16:18:32.938Z,3.60
2018-12-26T16:21:06.012Z,3.37
2018-12-26T16:23:39.289Z,2.30
2018-12-26T16:26:12.309Z,2.37
2018-12-26T16:28:45.591Z,3.03
2018-12-26T16:31:19.246Z,3.17
2018-12-26T16:33:52.441Z,2.53
2018-12-26T16:36:25.529Z,2.90
2018-12-26T16:38:58.713Z,3.93
2018-12-26T16:41:32.380Z,3.60
2018-12-26T16:44:05.925Z,4.07
2018-12-26T16:46:39.412Z,3.70
2018-12-26T16:49:12.750Z,3.40
2018-12-26T16:51:49.182Z,3.10
2018-12-26T16:54:22.878Z,2.33
2018-12-26T16:56:59.259Z,2.33
2018-12-26T16:59:32.548Z,2.27
2018-12-26T17:02:05.776Z,2.33
2018-12-26T17:04:39.047Z,2.77
2018-12-26T17:07:12.107Z,2.73
2018-12-26T17:09:45.529Z,2.77
2018-12-26T17:12:18.651Z,2.53
2018-12-26T17:14:54.975Z,2.17
2018-12-26T17:17:28.109Z,3.70
2018-12-26T17:20:01.226Z,3.10
2018-12-26T17:22:34.455Z,2.77
2018-12-26T17:25:07.602Z,3.27
2018-12-26T17:27:41.005Z,2.77
2018-12-26T17:30:14.723Z,2.13
2018-12-26T17:32:48.188Z,2.83
2018-12-26T17:35:21.214Z,2.53
2018-12-26T17:37:54.236Z,2.20
2018-12-26T17:40:27.383Z,3.20
2018-12-26T17:43:00.888Z,2.40
2018-12-26T17:45:34.085Z,2.43
2018-12-26T17:48:07.116Z,2.03
2018-12-26T17:50:50.759Z,3.00
2018-12-26T17:53:40.625Z,3.13
2018-12-26T17:56:16.386Z,1.57
2018-12-26T17:59:08.062Z,2.27
2018-12-26T18:01:55.584Z,2.33
2018-12-26T18:04:29.331Z,2.90
2018-12-26T18:07:02.471Z,2.40
2018-12-26T18:09:35.568Z,2.87
2018-12-26T18:12:12.094Z,2.92
2018-12-26T18:14:44.533Z,3.30
2018-12-26T18:17:17.633Z,2.05
2018-12-26T18:20:32.889Z,2.45
2018-12-26T18:23:06.100Z,2.10
2018-12-26T18:29:20.891Z,1.67
2018-12-26T18:39:17.104Z,2.47
2018-12-26T18:41:50.119Z,2.50
2018-12-26T18:44:23.634Z,1.90
2018-12-26T18:46:56.673Z,2.00
2018-12-26T18:49:30.109Z,2.50
2018-12-26T18:52:04.045Z,2.47
2018-12-26T18:54:38.185Z,2.13
2018-12-26T18:57:12.035Z,1.40
2018-12-26T18:59:49.758Z,2.70
2018-12-26T19:02:23.666Z,2.10
2018-12-26T19:04:56.912Z,1.83
2018-12-26T19:07:32.910Z,1.77
2018-12-26T19:10:06.889Z,1.50
2018-12-26T19:12:45.779Z,1.97
2018-12-26T19:15:34.215Z,2.00
2018-12-26T19:18:11.547Z,1.93
2018-12-26T19:20:51.511Z,2.20
2018-12-26T19:23:24.686Z,2.10
2018-12-26T19:25:58.052Z,1.73
2018-12-26T19:28:31.161Z,2.10
2018-12-26T19:31:04.128Z,1.87
2018-12-26T19:33:37.408Z,2.63
2018-12-26T19:36:10.548Z,1.40
2018-12-26T19:38:43.657Z,2.27
2018-12-26T19:41:17.439Z,2.20
2018-12-26T19:43:51.132Z,2.77
2018-12-26T19:46:24.246Z,2.17
2018-12-26T19:49:02.557Z,2.60
2018-12-26T19:54:30.352Z,1.87
2018-12-26T19:57:05.119Z,1.53
2018-12-26T19:59:38.113Z,1.80
2018-12-26T20:02:12.548Z,2.50
2018-12-26T20:04:45.877Z,2.33
2018-12-26T20:07:19.583Z,2.37
2018-12-26T20:09:53.632Z,3.37
2018-12-26T20:12:27.719Z,3.20
2018-12-26T20:15:05.591Z,2.63
2018-12-26T20:17:40.443Z,2.53
2018-12-26T20:20:14.510Z,3.03
2018-12-26T20:22:55.049Z,3.57
2018-12-26T20:25:32.097Z,3.40
2018-12-26T20:28:05.717Z,3.10
2018-12-26T20:30:39.466Z,3.13
2018-12-26T20:33:15.605Z,3.40
2018-12-26T20:35:49.544Z,2.73
2018-12-26T20:38:23.212Z,3.90
2018-12-26T20:40:57.044Z,4.37
2018-12-26T20:43:30.435Z,4.07
2018-12-26T20:48:54.879Z,3.40
2018-12-26T20:51:27.911Z,3.77
2018-12-26T20:54:01.185Z,3.72
2018-12-26T20:56:35.103Z,3.85
2018-12-26T20:59:08.477Z,3.40
2018-12-26T21:01:42.203Z,4.47
2018-12-26T21:04:16.607Z,2.75
2018-12-26T21:06:51.237Z,3.80
2018-12-26T21:09:26.098Z,4.03
2018-12-26T21:12:02.162Z,3.33
2018-12-26T21:14:35.167Z,2.10
2018-12-26T21:17:08.657Z,3.10
2018-12-26T21:19:42.388Z,2.92
2018-12-26T21:22:16.031Z,2.23
2018-12-26T21:24:49.623Z,2.03
2018-12-26T21:27:22.948Z,1.70
2018-12-26T21:29:55.968Z,2.27
2018-12-26T21:32:29.140Z,2.67
2018-12-26T21:35:04.792Z,2.70
2018-12-26T21:37:38.702Z,2.33
2018-12-26T21:40:12.783Z,2.17
2018-12-26T21:42:46.656Z,2.98
2018-12-26T21:45:19.877Z,3.37
2018-12-26T21:47:53.951Z,2.98
2018-12-26T21:50:34.668Z,3.03
2018-12-26T21:53:08.354Z,2.73
2018-12-26T21:55:44.752Z,2.23
2018-12-26T21:58:18.104Z,2.33
2018-12-26T22:00:53.113Z,2.55
2018-12-26T22:03:26.447Z,2.80
2018-12-26T22:06:00.247Z,2.67
2018-12-26T22:08:33.210Z,2.97
2018-12-26T22:11:07.018Z,2.98
2018-12-26T22:13:42.735Z,3.25
2018-12-26T22:16:16.750Z,2.87
2018-12-26T22:18:50.740Z,3.72
2018-12-26T22:21:25.559Z,3.33
2018-12-26T22:23:58.951Z,2.70
2018-12-26T22:26:32.016Z,3.67
2018-12-26T22:29:05.876Z,3.30
2018-12-26T22:31:40.642Z,2.67
2018-12-26T22:34:14.516Z,2.90
2018-12-26T22:36:48.486Z,3.07
2018-12-26T22:39:21.909Z,4.27
2018-12-26T22:41:55.084Z,3.33
2018-12-26T22:44:28.261Z,3.17
2018-12-26T22:47:01.397Z,3.53
2018-12-26T22:49:35.121Z,3.73
2018-12-26T22:52:08.072Z,3.47
2018-12-26T22:54:41.053Z,4.67
2018-12-26T22:57:15.092Z,4.03
2018-12-26T22:59:48.978Z,3.40
2018-12-26T23:02:22.874Z,3.63
2018-12-26T23:04:55.770Z,2.77
2018-12-26T23:07:28.911Z,3.83
2018-12-26T23:10:01.957Z,3.70
2018-12-26T23:12:36.696Z,2.83
2018-12-26T23:15:10.078Z,4.70
2018-12-26T23:17:44.006Z,2.77
2018-12-26T23:20:18.150Z,4.80
2018-12-26T23:22:52.197Z,3.67
2018-12-26T23:25:26.216Z,3.67
2018-12-26T23:28:00.165Z,3.10
2018-12-26T23:30:34.110Z,5.87
2018-12-26T23:33:10.252Z,3.60
2018-12-26T23:35:45.676Z,4.30
2018-12-26T23:38:20.350Z,3.90
2018-12-26T23:40:56.439Z,4.47
2018-12-26T23:43:30.335Z,4.60
2018-12-26T23:46:04.069Z,3.80
2018-12-26T23:48:37.985Z,4.60
2018-12-26T23:51:12.098Z,4.20
2018-12-26T23:53:46.384Z,3.87
2018-12-26T23:56:19.334Z,4.60
2018-12-26T23:58:53.355Z,5.50
